Terminal Aerodrome Forecast
Issued by NWS

Home | Current Version | Previous Version | Text Only | Print | Product List | Glossary On
Versions: 1 2 3 4 5 6 7 8 9 10 11 12 13 14 15 16 17 18 19 20
334
FTUS42 KJAX 221143
TAFVQQ
TAF
KVQQ 221143Z 2212/2312 11004KT P6SM VCSH SCT025 BKN070 OVC150
     FM221500 11008KT 4SM -SHRA BR OVC030
     FM222000 09010KT 3SM -SHRA BR BKN015 OVC030=

USA.gov is the U.S. government's official web portal to all federal, state and local government web resources and services.